Carver, Massachusetts
Current Conditions -  °F | °C
As of 4:04 PM on Monday 22 Dec 2014 (Local Time) from KPYM Reporting Station
Overcast Overcast  
Wind Chill: 39°   Ceiling: 3900
Heat Index: 43°   Visibility: 10mi
Dew Point: 39°   Wind: 7mph
Humidity: 86%   Direction: 90°E
Pressure: 30.31"   Gusts: NA
Location:  41.88°N, 70.76°W
Report Text: KPYM 222104Z AUTO 09006KT 10SM SCT025 OVC039 06/04 A3031 RMK AO2 T00610039
Loading
Personal Weather Stations






























Interactive Weather Map New forecast layout! Learn more

10-Day Weather Forecast

Advertisements
Track Severe Weather on mobile